Aviation Digital Data Service (ADDS)

Output produced by METARs form (1004 UTC 19 January 2019)
found at http://www.aviationweather.gov/metar/data/
 
HUEN 190930Z 20005KT 9999 SCT021 FEW023CB BKN110 25/21 Q1018.6
TAF HUEN 190500Z 1906/2012 17005KT 9000 TS SCT020 FEW022CB BKN100 
     BECMG 1908/1912 18006KT 9999 SCT022 FEW024CB FM 191600 03005KT FEW021
FEW023CB 
     BECMG 1921/1924 36004KT 
     TEMPO 2002/2006 VRB08KT 9000 -TSRA BKN017 FEW019CB 
     BECMG 2007/2012 16007KT 9999 FEW022 FEW024CB